createdAt,value
2023-08-01T00:00:00.856Z,0.00
2023-08-01T00:01:00.876Z,0.00
2023-08-01T00:02:00.831Z,0.00
2023-08-01T00:03:00.908Z,0.00
2023-08-01T00:04:00.838Z,0.00
2023-08-01T00:05:00.778Z,0.00
2023-08-01T00:06:00.767Z,0.00
2023-08-01T00:07:00.757Z,0.00
2023-08-01T00:08:00.747Z,0.00
2023-08-01T00:09:00.751Z,0.00
2023-08-01T00:10:00.728Z,0.00
2023-08-01T00:11:00.706Z,0.00
2023-08-01T00:12:00.694Z,0.00
2023-08-01T00:13:00.680Z,0.00
2023-08-01T00:14:00.659Z,0.00
2023-08-01T00:15:00.659Z,0.00
2023-08-01T00:16:07.382Z,0.00
2023-08-01T00:17:01.684Z,0.00
2023-08-01T00:18:00.649Z,0.00
2023-08-01T00:19:00.593Z,0.00
2023-08-01T00:20:00.586Z,0.00
2023-08-01T00:21:00.586Z,0.00
2023-08-01T00:22:00.575Z,0.00
2023-08-01T00:23:00.551Z,0.00
2023-08-01T00:24:00.553Z,0.00
2023-08-01T00:25:00.528Z,0.00
2023-08-01T00:26:00.543Z,0.00
2023-08-01T00:27:00.524Z,0.00
2023-08-01T00:28:00.498Z,0.00
2023-08-01T00:29:00.469Z,0.00
2023-08-01T00:30:00.451Z,0.00
2023-08-01T00:31:00.475Z,0.00
2023-08-01T00:32:00.446Z,0.00
2023-08-01T00:33:00.475Z,0.00
2023-08-01T00:34:00.400Z,0.00
2023-08-01T00:35:00.385Z,0.00
2023-08-01T00:36:00.411Z,0.00
2023-08-01T00:37:00.362Z,0.00
2023-08-01T00:38:00.350Z,0.00
2023-08-01T00:39:00.334Z,0.00
2023-08-01T00:40:00.324Z,0.00
2023-08-01T00:41:00.304Z,0.00
2023-08-01T00:42:00.317Z,0.00
2023-08-01T00:43:00.282Z,0.00
2023-08-01T00:44:00.272Z,0.00
2023-08-01T00:45:00.257Z,0.00
2023-08-01T00:46:00.285Z,0.00
2023-08-01T00:47:00.244Z,0.00
2023-08-01T00:48:00.549Z,0.00
2023-08-01T00:49:00.218Z,0.00
2023-08-01T00:50:00.193Z,0.00
2023-08-01T00:51:00.173Z,0.00
2023-08-01T00:52:00.173Z,0.00
2023-08-01T00:53:00.155Z,0.00
2023-08-01T00:54:00.150Z,0.00
2023-08-01T00:55:00.152Z,0.00
2023-08-01T00:56:00.115Z,0.00
2023-08-01T00:57:00.097Z,0.00
2023-08-01T00:58:00.080Z,0.00
2023-08-01T00:59:00.060Z,0.00
2023-08-01T01:00:00.052Z,0.00
2023-08-01T01:01:00.073Z,0.00
2023-08-01T01:02:00.101Z,0.00
2023-08-01T01:03:00.129Z,0.00
2023-08-01T01:03:59.998Z,0.00
2023-08-01T01:04:59.984Z,0.00
2023-08-01T01:05:59.973Z,0.00
2023-08-01T01:06:59.958Z,0.00
2023-08-01T01:07:59.976Z,0.00
2023-08-01T01:08:59.934Z,0.00
2023-08-01T01:09:59.915Z,0.00
2023-08-01T01:10:59.913Z,0.00
2023-08-01T01:11:59.899Z,0.00
2023-08-01T01:12:59.914Z,0.00
2023-08-01T01:13:59.901Z,0.00
2023-08-01T01:14:59.847Z,0.00
2023-08-01T01:15:59.868Z,0.00
2023-08-01T01:16:59.852Z,0.00
2023-08-01T01:17:59.856Z,0.00
2023-08-01T01:18:59.795Z,0.00
2023-08-01T01:19:59.798Z,0.00
2023-08-01T01:20:59.773Z,0.00
2023-08-01T01:22:00.000Z,0.00
2023-08-01T01:22:59.752Z,0.00
2023-08-01T01:23:59.744Z,0.00
2023-08-01T01:24:59.728Z,0.00
2023-08-01T01:25:59.721Z,0.00
2023-08-01T01:26:59.688Z,0.00
2023-08-01T01:27:59.744Z,0.00
2023-08-01T01:28:59.667Z,0.00
2023-08-01T01:29:59.652Z,0.00
2023-08-01T01:30:59.644Z,0.00
2023-08-01T01:31:59.626Z,0.00
2023-08-01T01:32:59.645Z,0.00
2023-08-01T01:33:59.641Z,0.00
2023-08-01T01:34:59.614Z,0.00
2023-08-01T01:35:59.576Z,0.00
2023-08-01T01:36:59.568Z,0.00
2023-08-01T01:37:59.552Z,0.00
2023-08-01T01:38:59.528Z,0.00
2023-08-01T01:39:59.554Z,0.00
2023-08-01T01:40:59.503Z,0.00
2023-08-01T01:41:59.506Z,0.00
2023-08-01T01:42:59.491Z,0.00
2023-08-01T01:43:59.469Z,0.00
2023-08-01T01:44:59.450Z,0.00
2023-08-01T01:45:59.440Z,0.00
2023-08-01T01:46:59.550Z,0.00
2023-08-01T01:47:59.472Z,0.00
2023-08-01T01:48:59.400Z,0.00
2023-08-01T01:49:59.382Z,0.00
2023-08-01T01:50:59.372Z,0.00
2023-08-01T01:51:59.363Z,0.00
2023-08-01T01:52:59.350Z,0.00
2023-08-01T01:53:59.333Z,0.00
2023-08-01T01:54:59.319Z,0.00
2023-08-01T01:55:59.305Z,0.00
2023-08-01T01:56:59.300Z,0.00
2023-08-01T01:57:59.295Z,0.00
2023-08-01T01:58:59.281Z,0.00
2023-08-01T01:59:59.249Z,0.00
2023-08-01T02:00:59.298Z,0.00
2023-08-01T02:01:59.226Z,0.00
2023-08-01T02:02:59.212Z,0.00
2023-08-01T02:03:59.232Z,0.00
2023-08-01T02:04:59.209Z,0.00
2023-08-01T02:05:59.183Z,0.00
2023-08-01T02:06:59.159Z,0.00
2023-08-01T02:07:59.148Z,0.00
2023-08-01T02:08:59.135Z,0.00
2023-08-01T02:09:59.129Z,0.00
2023-08-01T02:10:59.098Z,0.00
2023-08-01T02:11:59.093Z,0.00
2023-08-01T02:12:59.081Z,0.00
2023-08-01T02:13:59.065Z,0.00
2023-08-01T02:14:59.046Z,0.00
2023-08-01T02:15:59.113Z,0.00
2023-08-01T02:16:59.023Z,0.00
2023-08-01T02:17:59.058Z,0.00
2023-08-01T02:18:59.012Z,0.00
2023-08-01T02:19:58.989Z,0.00
2023-08-01T02:20:59.021Z,0.00
2023-08-01T02:21:59.011Z,0.00
2023-08-01T02:22:58.946Z,0.00
2023-08-01T02:23:58.934Z,0.00
2023-08-01T02:24:58.922Z,0.00
2023-08-01T02:25:58.921Z,0.00
2023-08-01T02:26:58.895Z,0.00
2023-08-01T02:27:58.925Z,0.00
2023-08-01T02:28:58.866Z,0.00
2023-08-01T02:29:58.900Z,0.00
2023-08-01T02:30:58.846Z,0.00
2023-08-01T02:31:58.850Z,0.00
2023-08-01T02:32:58.884Z,0.00
2023-08-01T02:33:58.798Z,0.00
2023-08-01T02:34:58.797Z,0.00
2023-08-01T02:35:58.806Z,0.00
2023-08-01T02:36:58.773Z,0.00
2023-08-01T02:37:58.775Z,0.00
2023-08-01T02:38:58.738Z,0.00
2023-08-01T02:39:58.730Z,0.00
2023-08-01T02:40:58.719Z,0.00
2023-08-01T02:41:58.721Z,0.00
2023-08-01T02:42:58.700Z,0.00
2023-08-01T02:43:58.690Z,0.00
2023-08-01T02:44:58.673Z,0.00
2023-08-01T02:45:58.654Z,0.00
2023-08-01T02:46:58.646Z,0.00
2023-08-01T02:47:58.753Z,0.00
2023-08-01T02:48:58.612Z,0.00
2023-08-01T02:49:58.617Z,0.00
2023-08-01T02:50:58.591Z,0.00
2023-08-01T02:51:58.567Z,0.00
2023-08-01T02:52:58.559Z,0.00
2023-08-01T02:53:58.543Z,0.00
2023-08-01T02:54:58.532Z,0.00
2023-08-01T02:55:58.541Z,0.00
2023-08-01T02:56:58.510Z,0.00
2023-08-01T02:57:58.499Z,0.00
2023-08-01T02:58:58.496Z,0.00
2023-08-01T02:59:58.480Z,0.00
2023-08-01T03:00:58.465Z,0.00
2023-08-01T03:01:58.508Z,0.00
2023-08-01T03:02:58.546Z,0.00
2023-08-01T03:03:58.421Z,0.00
2023-08-01T03:04:58.420Z,0.00
2023-08-01T03:05:58.399Z,0.00
2023-08-01T03:06:58.386Z,0.00
2023-08-01T03:07:58.416Z,0.00
2023-08-01T03:08:58.369Z,0.00
2023-08-01T03:09:58.355Z,0.00
2023-08-01T03:10:58.339Z,0.00
2023-08-01T03:11:58.353Z,0.00
2023-08-01T03:12:58.304Z,0.00
2023-08-01T03:13:58.320Z,0.00
2023-08-01T03:14:58.283Z,0.00
2023-08-01T03:15:58.303Z,0.00
2023-08-01T03:16:58.266Z,0.00
2023-08-01T03:17:58.346Z,0.00
2023-08-01T03:18:58.238Z,0.00
2023-08-01T03:19:58.240Z,0.00
2023-08-01T03:20:58.206Z,0.00
2023-08-01T03:21:58.237Z,0.00
2023-08-01T03:22:58.193Z,0.00
2023-08-01T03:23:58.211Z,0.00
2023-08-01T03:24:58.164Z,0.00
2023-08-01T03:25:58.152Z,0.00
2023-08-01T03:26:58.143Z,0.00
2023-08-01T03:27:58.135Z,0.00
2023-08-01T03:28:58.114Z,0.00
2023-08-01T03:29:58.133Z,0.00
2023-08-01T03:32:10.236Z,0.00
2023-08-01T03:33:10.110Z,0.00
2023-08-01T03:34:10.287Z,0.00
2023-08-01T03:35:10.043Z,0.00
2023-08-01T03:36:10.009Z,0.00
2023-08-01T03:37:09.981Z,0.00
2023-08-01T03:38:09.985Z,0.00
2023-08-01T03:39:09.972Z,0.00
2023-08-01T03:40:10.084Z,0.00
2023-08-01T03:41:09.928Z,0.00
2023-08-01T03:42:09.924Z,4.00
2023-08-01T03:43:09.904Z,4.00
2023-08-01T03:44:09.891Z,4.00
2023-08-01T03:45:09.958Z,4.00
2023-08-01T03:46:09.880Z,4.00
2023-08-01T03:47:09.852Z,4.00
2023-08-01T03:48:09.866Z,0.00
2023-08-01T03:49:09.842Z,0.00
2023-08-01T03:50:09.821Z,4.00
2023-08-01T03:51:09.813Z,4.00
2023-08-01T03:52:10.524Z,4.00
2023-08-01T03:53:09.775Z,4.00
2023-08-01T03:54:13.808Z,4.00
2023-08-01T03:55:09.759Z,4.00
2023-08-01T03:56:09.746Z,4.00
2023-08-01T03:57:09.765Z,4.00
2023-08-01T03:58:09.719Z,4.00
2023-08-01T03:59:09.699Z,4.00
2023-08-01T04:00:09.692Z,4.00
2023-08-01T04:01:09.744Z,4.00
2023-08-01T04:02:09.669Z,8.00
2023-08-01T04:03:09.755Z,8.00
2023-08-01T04:04:09.650Z,8.00
2023-08-01T04:05:09.627Z,12.00
2023-08-01T04:06:09.617Z,12.00
2023-08-01T04:07:09.623Z,16.00
2023-08-01T04:08:09.589Z,16.00
2023-08-01T04:09:09.599Z,20.00
2023-08-01T04:10:09.577Z,20.00
2023-08-01T04:11:10.260Z,24.00
2023-08-01T04:12:09.535Z,28.00
2023-08-01T04:13:09.520Z,24.00
2023-08-01T04:14:09.525Z,32.00
2023-08-01T04:15:09.516Z,32.00
2023-08-01T04:16:09.552Z,32.00
2023-08-01T04:17:09.474Z,32.00
2023-08-01T04:18:09.459Z,32.00
2023-08-01T04:19:09.464Z,32.00
2023-08-01T04:20:09.451Z,36.00
2023-08-01T04:21:09.438Z,32.00
2023-08-01T04:22:09.421Z,36.00
2023-08-01T04:23:09.415Z,32.00
2023-08-01T04:24:10.332Z,32.00
2023-08-01T04:25:09.374Z,32.00
2023-08-01T04:26:09.365Z,32.00
2023-08-01T04:27:09.356Z,36.00
2023-08-01T04:28:09.413Z,40.00
2023-08-01T04:29:09.325Z,36.00
2023-08-01T04:30:09.306Z,36.00
2023-08-01T04:31:09.329Z,40.00
2023-08-01T04:32:09.291Z,40.00
2023-08-01T04:33:09.303Z,52.00
2023-08-01T04:34:09.268Z,60.00
2023-08-01T04:35:09.240Z,68.00
2023-08-01T04:36:09.230Z,72.00
2023-08-01T04:37:09.217Z,72.00
2023-08-01T04:38:09.225Z,80.00
2023-08-01T04:39:09.184Z,84.00
2023-08-01T04:40:09.184Z,76.00
2023-08-01T04:41:09.181Z,72.00
2023-08-01T04:42:09.183Z,76.00
2023-08-01T04:43:09.177Z,64.00
2023-08-01T04:44:09.135Z,60.00
2023-08-01T04:45:09.229Z,64.00
2023-08-01T04:46:09.690Z,72.00
2023-08-01T04:47:09.155Z,80.00
2023-08-01T04:48:09.082Z,88.00
2023-08-01T04:49:09.068Z,84.00
2023-08-01T04:50:09.050Z,76.00
2023-08-01T04:51:09.056Z,80.00
2023-08-01T04:52:09.047Z,76.00
2023-08-01T04:53:09.013Z,80.00
2023-08-01T04:54:09.003Z,80.00
2023-08-01T04:55:08.998Z,84.00
2023-08-01T04:56:08.970Z,80.00
2023-08-01T04:57:08.976Z,72.00
2023-08-01T04:58:11.679Z,60.00
2023-08-01T04:59:08.993Z,52.00
2023-08-01T05:00:08.937Z,48.00
2023-08-01T05:01:08.988Z,44.00
2023-08-01T05:02:08.902Z,48.00
2023-08-01T05:03:08.981Z,56.00
2023-08-01T05:04:08.877Z,60.00
2023-08-01T05:05:08.859Z,48.00
2023-08-01T05:06:08.921Z,48.00
2023-08-01T05:07:08.830Z,48.00
2023-08-01T05:08:08.828Z,44.00
2023-08-01T05:09:08.823Z,44.00
2023-08-01T05:10:08.797Z,36.00
2023-08-01T05:11:08.787Z,36.00
2023-08-01T05:12:08.789Z,32.00
2023-08-01T05:13:08.783Z,28.00
2023-08-01T05:14:08.740Z,28.00
2023-08-01T05:15:08.727Z,28.00
2023-08-01T05:16:08.854Z,28.00
2023-08-01T05:17:08.757Z,24.00
2023-08-01T05:18:08.696Z,24.00
2023-08-01T05:19:08.674Z,20.00
2023-08-01T05:20:08.671Z,24.00
2023-08-01T05:21:08.655Z,20.00
2023-08-01T05:22:08.647Z,20.00
2023-08-01T05:23:08.628Z,16.00
2023-08-01T05:24:08.610Z,20.00
2023-08-01T05:25:08.618Z,24.00
2023-08-01T05:26:08.591Z,28.00
2023-08-01T05:27:08.586Z,32.00
2023-08-01T05:28:08.645Z,40.00
2023-08-01T05:29:08.546Z,64.00
2023-08-01T05:30:08.558Z,60.00
2023-08-01T05:31:08.574Z,76.00
2023-08-01T05:32:08.512Z,92.00
2023-08-01T05:33:08.516Z,88.00
2023-08-01T05:34:08.506Z,68.00
2023-08-01T05:35:08.489Z,72.00
2023-08-01T05:36:08.458Z,84.00
2023-08-01T05:37:08.451Z,76.00
2023-08-01T05:38:08.442Z,56.00
2023-08-01T05:39:08.424Z,76.00
2023-08-01T05:40:08.434Z,108.00
2023-08-01T05:41:08.417Z,124.00
2023-08-01T05:42:08.385Z,108.00
2023-08-01T05:43:08.364Z,64.00
2023-08-01T05:44:08.360Z,68.00
2023-08-01T05:45:08.342Z,80.00
2023-08-01T05:46:08.372Z,104.00
2023-08-01T05:47:08.374Z,116.00
2023-08-01T05:48:08.401Z,128.00
2023-08-01T05:49:08.300Z,132.00
2023-08-01T05:50:08.293Z,128.00
2023-08-01T05:51:08.268Z,128.00
2023-08-01T05:52:08.255Z,136.00
2023-08-01T05:53:08.250Z,148.00
2023-08-01T05:54:08.227Z,132.00
2023-08-01T05:55:08.211Z,128.00
2023-08-01T05:56:08.224Z,144.00
2023-08-01T05:57:08.195Z,160.00
2023-08-01T05:58:08.231Z,164.00
2023-08-01T05:59:08.176Z,156.00
2023-08-01T06:00:08.169Z,164.00
2023-08-01T06:01:08.149Z,164.00
2023-08-01T06:02:08.129Z,144.00
2023-08-01T06:03:08.387Z,144.00
2023-08-01T06:04:08.169Z,168.00
2023-08-01T06:05:08.089Z,180.00
2023-08-01T06:06:08.095Z,164.00
2023-08-01T06:07:08.060Z,200.00
2023-08-01T06:08:08.116Z,224.00
2023-08-01T06:09:08.051Z,220.00
2023-08-01T06:10:08.042Z,220.00
2023-08-01T06:11:08.023Z,232.00
2023-08-01T06:12:08.002Z,208.00
2023-08-01T06:13:08.055Z,180.00
2023-08-01T06:14:07.990Z,176.00
2023-08-01T06:15:07.977Z,180.00
2023-08-01T06:16:07.970Z,164.00
2023-08-01T06:17:07.972Z,168.00
2023-08-01T06:18:07.919Z,168.00
2023-08-01T06:19:07.935Z,188.00
2023-08-01T06:20:07.925Z,184.00
2023-08-01T06:21:07.893Z,224.00
2023-08-01T06:22:07.879Z,216.00
2023-08-01T06:23:07.869Z,208.00
2023-08-01T06:24:07.846Z,188.00
2023-08-01T06:25:07.888Z,160.00
2023-08-01T06:26:07.835Z,184.00
2023-08-01T06:27:07.811Z,220.00
2023-08-01T06:28:07.817Z,216.00
2023-08-01T06:29:07.792Z,192.00
2023-08-01T06:30:07.774Z,196.00
2023-08-01T06:31:07.792Z,216.00
2023-08-01T06:32:07.811Z,268.00
2023-08-01T06:33:07.771Z,328.00
2023-08-01T06:34:07.728Z,412.00
2023-08-01T06:35:07.703Z,480.00
2023-08-01T06:36:07.688Z,516.00
2023-08-01T06:37:07.726Z,508.00
2023-08-01T06:38:07.683Z,488.00
2023-08-01T06:39:07.665Z,556.00
2023-08-01T06:40:07.643Z,440.00
2023-08-01T06:41:07.644Z,404.00
2023-08-01T06:42:07.635Z,432.00
2023-08-01T06:43:07.645Z,528.00
2023-08-01T06:44:07.604Z,608.00
2023-08-01T06:45:07.577Z,624.00
2023-08-01T06:46:07.578Z,580.00
2023-08-01T06:47:07.573Z,496.00
2023-08-01T06:48:07.608Z,336.00
2023-08-01T06:49:07.569Z,200.00
2023-08-01T06:50:07.537Z,140.00
2023-08-01T06:51:07.521Z,112.00
2023-08-01T06:52:07.501Z,92.00
2023-08-01T06:53:07.474Z,92.00
2023-08-01T06:54:07.475Z,116.00
2023-08-01T06:55:07.501Z,220.00
2023-08-01T06:56:07.445Z,360.00
2023-08-01T06:57:07.432Z,440.00
2023-08-01T06:58:07.452Z,400.00
2023-08-01T06:59:07.410Z,440.00
2023-08-01T07:00:07.396Z,356.00
2023-08-01T07:01:07.441Z,348.00
2023-08-01T07:02:07.357Z,324.00
2023-08-01T07:03:07.381Z,392.00
2023-08-01T07:04:07.357Z,400.00
2023-08-01T07:05:07.393Z,532.00
2023-08-01T07:06:08.335Z,632.00
2023-08-01T07:07:07.299Z,844.00
2023-08-01T07:08:07.287Z,880.00
2023-08-01T07:09:07.270Z,668.00
2023-08-01T07:10:07.275Z,556.00
2023-08-01T07:11:07.253Z,564.00
2023-08-01T07:12:07.262Z,536.00
2023-08-01T07:13:07.217Z,552.00
2023-08-01T07:14:07.207Z,444.00
2023-08-01T07:15:07.205Z,424.00
2023-08-01T07:16:07.217Z,404.00
2023-08-01T07:17:07.160Z,452.00
2023-08-01T07:18:07.221Z,448.00
2023-08-01T07:19:07.135Z,448.00
2023-08-01T07:20:07.126Z,472.00
2023-08-01T07:21:07.130Z,460.00
2023-08-01T07:22:07.094Z,476.00
2023-08-01T07:23:07.097Z,484.00
2023-08-01T07:24:07.079Z,492.00
2023-08-01T07:25:07.061Z,572.00
2023-08-01T07:26:07.048Z,536.00
2023-08-01T07:27:07.052Z,540.00
2023-08-01T07:28:07.030Z,684.00
2023-08-01T07:29:07.014Z,1104.00
2023-08-01T07:30:06.996Z,1224.00
2023-08-01T07:31:07.126Z,1172.00
2023-08-01T07:32:07.039Z,668.00
2023-08-01T07:33:06.965Z,684.00
2023-08-01T07:34:06.935Z,724.00
2023-08-01T07:35:06.936Z,700.00
2023-08-01T07:36:06.910Z,444.00
2023-08-01T07:37:06.895Z,316.00
2023-08-01T07:38:06.892Z,316.00
2023-08-01T07:39:06.868Z,388.00
2023-08-01T07:40:06.856Z,384.00
2023-08-01T07:41:06.889Z,416.00
2023-08-01T07:42:06.824Z,568.00
2023-08-01T07:43:06.850Z,1028.00
2023-08-01T07:44:06.801Z,724.00
2023-08-01T07:45:06.784Z,656.00
2023-08-01T07:46:06.834Z,792.00
2023-08-01T07:47:06.822Z,764.00
2023-08-01T07:48:06.813Z,1736.00
2023-08-01T07:49:06.732Z,1376.00
2023-08-01T07:50:06.712Z,1480.00
2023-08-01T07:51:06.711Z,1016.00
2023-08-01T07:52:06.695Z,1128.00
2023-08-01T07:53:06.687Z,672.00
2023-08-01T07:54:06.658Z,492.00
2023-08-01T07:55:06.795Z,452.00
2023-08-01T07:56:06.635Z,484.00
2023-08-01T07:57:06.625Z,596.00
2023-08-01T07:58:06.605Z,792.00
2023-08-01T07:59:06.598Z,920.00
2023-08-01T08:00:06.593Z,1172.00
2023-08-01T08:01:06.653Z,844.00
2023-08-01T08:02:06.557Z,572.00
2023-08-01T08:03:06.570Z,484.00
2023-08-01T08:04:06.576Z,588.00
2023-08-01T08:05:06.513Z,644.00
2023-08-01T08:06:06.539Z,564.00
2023-08-01T08:07:06.514Z,448.00
2023-08-01T08:08:06.502Z,652.00
2023-08-01T08:09:06.477Z,972.00
2023-08-01T08:10:06.451Z,1184.00
2023-08-01T08:11:06.469Z,1304.00
2023-08-01T08:12:06.419Z,744.00
2023-08-01T08:13:06.400Z,536.00
2023-08-01T08:14:06.402Z,424.00
2023-08-01T08:15:06.374Z,432.00
2023-08-01T08:16:06.415Z,856.00
2023-08-01T08:17:06.420Z,1292.00
2023-08-01T08:18:06.393Z,1028.00
2023-08-01T08:19:06.315Z,1272.00
2023-08-01T08:20:06.305Z,1624.00
2023-08-01T08:21:06.298Z,1372.00
2023-08-01T08:22:06.285Z,836.00
2023-08-01T08:23:06.346Z,744.00
2023-08-01T08:24:06.259Z,1612.00
2023-08-01T08:25:06.232Z,1484.00
2023-08-01T08:26:06.232Z,1584.00
2023-08-01T08:27:06.217Z,1848.00
2023-08-01T08:28:06.222Z,1212.00
2023-08-01T08:29:06.225Z,1468.00
2023-08-01T08:30:06.167Z,824.00
2023-08-01T08:31:06.193Z,1956.00
2023-08-01T08:32:06.150Z,1144.00
2023-08-01T08:33:06.178Z,1656.00
2023-08-01T08:34:06.122Z,1396.00
2023-08-01T08:35:06.114Z,2172.00
2023-08-01T08:36:06.094Z,1052.00
2023-08-01T08:37:06.092Z,1688.00
2023-08-01T08:38:06.171Z,1304.00
2023-08-01T08:39:06.044Z,2048.00
2023-08-01T08:40:06.042Z,1328.00
2023-08-01T08:41:06.058Z,1568.00
2023-08-01T08:42:06.017Z,952.00
2023-08-01T08:43:06.018Z,820.00
2023-08-01T08:44:05.992Z,696.00
2023-08-01T08:45:05.980Z,740.00
2023-08-01T08:46:05.980Z,696.00
2023-08-01T08:47:06.129Z,660.00
2023-08-01T08:48:05.952Z,648.00
2023-08-01T08:49:05.990Z,624.00
2023-08-01T08:50:05.922Z,624.00
2023-08-01T08:51:05.901Z,612.00
2023-08-01T08:52:05.875Z,580.00
2023-08-01T08:53:05.872Z,620.00
2023-08-01T08:54:05.869Z,756.00
2023-08-01T08:55:05.852Z,1484.00
2023-08-01T08:56:05.820Z,768.00
2023-08-01T08:57:05.921Z,884.00
2023-08-01T08:58:05.805Z,1144.00
2023-08-01T08:59:05.793Z,1372.00
2023-08-01T09:00:05.783Z,1052.00
2023-08-01T09:01:05.907Z,768.00
2023-08-01T09:02:05.774Z,600.00
2023-08-01T09:03:05.852Z,420.00
2023-08-01T09:04:05.738Z,316.00
2023-08-01T09:05:05.749Z,312.00
2023-08-01T09:06:05.705Z,428.00
2023-08-01T09:07:05.692Z,820.00
2023-08-01T09:08:05.682Z,1848.00
2023-08-01T09:09:05.690Z,936.00
2023-08-01T09:10:05.682Z,1384.00
2023-08-01T09:11:05.700Z,1400.00
2023-08-01T09:12:05.670Z,1088.00
2023-08-01T09:13:05.612Z,1152.00
2023-08-01T09:14:05.607Z,1124.00
2023-08-01T09:15:05.577Z,1212.00
2023-08-01T09:16:05.576Z,808.00
2023-08-01T09:17:05.624Z,1412.00
2023-08-01T09:18:05.559Z,2236.00
2023-08-01T09:19:05.532Z,2112.00
2023-08-01T09:20:05.516Z,2132.00
2023-08-01T09:21:05.507Z,2232.00
2023-08-01T09:22:05.489Z,2164.00
2023-08-01T09:23:05.505Z,2420.00
2023-08-01T09:24:05.465Z,1508.00
2023-08-01T09:25:05.455Z,1404.00
2023-08-01T09:26:05.442Z,1660.00
2023-08-01T09:27:05.457Z,924.00
2023-08-01T09:28:05.439Z,1096.00
2023-08-01T09:29:05.422Z,2604.00
2023-08-01T09:30:05.398Z,2528.00
2023-08-01T09:31:05.410Z,2544.00
2023-08-01T09:32:05.359Z,804.00
2023-08-01T09:33:05.380Z,1336.00
2023-08-01T09:34:05.352Z,748.00
2023-08-01T09:35:05.327Z,1344.00
2023-08-01T09:36:05.310Z,1380.00
2023-08-01T09:37:05.288Z,1196.00
2023-08-01T09:38:05.275Z,1076.00
2023-08-01T09:39:05.296Z,2404.00
2023-08-01T09:40:05.278Z,2264.00
2023-08-01T09:41:05.234Z,2372.00
2023-08-01T09:42:05.231Z,2440.00
2023-08-01T09:43:05.216Z,2588.00
2023-08-01T09:44:05.231Z,2216.00
2023-08-01T09:45:05.184Z,2756.00
2023-08-01T09:46:05.217Z,2876.00
2023-08-01T09:47:05.193Z,2900.00
2023-08-01T09:48:05.179Z,3080.00
2023-08-01T09:49:05.140Z,2840.00
2023-08-01T09:50:05.149Z,1712.00
2023-08-01T09:51:05.134Z,1572.00
2023-08-01T09:52:05.119Z,1444.00
2023-08-01T09:53:05.092Z,1916.00
2023-08-01T09:54:05.062Z,1716.00
2023-08-01T09:55:05.056Z,1672.00
2023-08-01T09:56:05.072Z,2904.00
2023-08-01T09:57:05.025Z,2336.00
2023-08-01T09:58:06.789Z,2808.00
2023-08-01T09:59:05.028Z,3064.00
2023-08-01T10:00:04.993Z,3156.00
2023-08-01T10:01:04.983Z,1752.00
2023-08-01T10:02:05.014Z,1320.00
2023-08-01T10:03:05.006Z,1272.00
2023-08-01T10:04:05.023Z,1264.00
2023-08-01T10:05:04.923Z,1308.00
2023-08-01T10:06:04.906Z,1684.00
2023-08-01T10:07:04.908Z,2040.00
2023-08-01T10:08:04.940Z,2248.00
2023-08-01T10:09:04.903Z,996.00
2023-08-01T10:10:04.896Z,992.00
2023-08-01T10:11:04.848Z,1600.00
2023-08-01T10:12:04.850Z,784.00
2023-08-01T10:13:04.824Z,628.00
2023-08-01T10:14:04.810Z,580.00
2023-08-01T10:15:04.795Z,504.00
2023-08-01T10:16:04.840Z,376.00
2023-08-01T10:17:04.787Z,200.00
2023-08-01T10:18:04.804Z,112.00
2023-08-01T10:19:04.756Z,128.00
2023-08-01T10:20:04.748Z,172.00
2023-08-01T10:21:04.715Z,204.00
2023-08-01T10:22:04.724Z,252.00
2023-08-01T10:23:04.687Z,320.00
2023-08-01T10:24:04.691Z,372.00
2023-08-01T10:25:04.672Z,400.00
2023-08-01T10:26:04.647Z,448.00
2023-08-01T10:27:04.631Z,496.00
2023-08-01T10:28:04.672Z,552.00
2023-08-01T10:29:04.607Z,608.00
2023-08-01T10:30:04.604Z,640.00
2023-08-01T10:31:04.584Z,680.00
2023-08-01T10:32:04.605Z,712.00
2023-08-01T10:33:04.635Z,736.00
2023-08-01T10:34:04.648Z,772.00
2023-08-01T10:35:04.538Z,812.00
2023-08-01T10:36:04.517Z,840.00
2023-08-01T10:37:04.511Z,864.00
2023-08-01T10:38:04.497Z,956.00
2023-08-01T10:39:04.487Z,1140.00
2023-08-01T10:40:04.517Z,1316.00
2023-08-01T10:41:04.444Z,1240.00
2023-08-01T10:42:04.443Z,2144.00
2023-08-01T10:43:04.424Z,2400.00
2023-08-01T10:44:04.410Z,2292.00
2023-08-01T10:45:04.396Z,2192.00
2023-08-01T10:46:04.471Z,1724.00
2023-08-01T10:47:04.408Z,1388.00
2023-08-01T10:48:04.384Z,1428.00
2023-08-01T10:49:04.356Z,1688.00
2023-08-01T10:50:04.335Z,1532.00
2023-08-01T10:51:04.325Z,1568.00
2023-08-01T10:52:04.396Z,1148.00
2023-08-01T10:53:04.297Z,1592.00
2023-08-01T10:54:04.287Z,1496.00
2023-08-01T10:55:04.288Z,2508.00
2023-08-01T10:56:04.253Z,2508.00
2023-08-01T10:57:04.267Z,2048.00
2023-08-01T10:58:04.241Z,2052.00
2023-08-01T10:59:04.224Z,1988.00
2023-08-01T11:00:04.205Z,2300.00
2023-08-01T11:01:04.237Z,2648.00
2023-08-01T11:02:04.190Z,1208.00
2023-08-01T11:03:04.250Z,856.00
2023-08-01T11:04:04.156Z,592.00
2023-08-01T11:05:04.164Z,368.00
2023-08-01T11:06:05.779Z,216.00
2023-08-01T11:07:04.140Z,180.00
2023-08-01T11:08:04.108Z,156.00
2023-08-01T11:09:04.088Z,120.00
2023-08-01T11:10:04.088Z,120.00
2023-08-01T11:11:04.074Z,144.00
2023-08-01T11:12:04.043Z,164.00
2023-08-01T11:13:04.032Z,172.00
2023-08-01T11:14:04.126Z,172.00
2023-08-01T11:15:04.012Z,176.00
2023-08-01T11:16:04.045Z,176.00
2023-08-01T11:17:04.247Z,168.00
2023-08-01T11:18:04.002Z,156.00
2023-08-01T11:19:03.957Z,144.00
2023-08-01T11:20:03.972Z,176.00
2023-08-01T11:21:03.930Z,200.00
2023-08-01T11:22:03.916Z,260.00
2023-08-01T11:23:03.898Z,360.00
2023-08-01T11:24:03.890Z,384.00
2023-08-01T11:25:03.883Z,344.00
2023-08-01T11:26:03.914Z,348.00
2023-08-01T11:27:03.857Z,356.00
2023-08-01T11:28:03.853Z,352.00
2023-08-01T11:29:03.836Z,392.00
2023-08-01T11:30:03.830Z,436.00
2023-08-01T11:31:03.879Z,428.00
2023-08-01T11:32:03.798Z,396.00
2023-08-01T11:33:03.861Z,368.00
2023-08-01T11:34:03.760Z,368.00
2023-08-01T11:35:03.748Z,360.00
2023-08-01T11:36:03.861Z,360.00
2023-08-01T11:37:03.723Z,380.00
2023-08-01T11:38:03.734Z,400.00
2023-08-01T11:39:03.692Z,424.00
2023-08-01T11:40:03.692Z,476.00
2023-08-01T11:41:03.677Z,520.00
2023-08-01T11:42:03.672Z,532.00
2023-08-01T11:43:03.635Z,524.00
2023-08-01T11:44:03.624Z,544.00
2023-08-01T11:45:03.652Z,544.00
2023-08-01T11:46:03.631Z,528.00
2023-08-01T11:47:03.580Z,504.00
2023-08-01T11:48:03.646Z,488.00
2023-08-01T11:49:03.578Z,480.00
2023-08-01T11:50:03.560Z,484.00
2023-08-01T11:51:03.528Z,504.00
2023-08-01T11:52:03.517Z,540.00
2023-08-01T11:53:03.503Z,600.00
2023-08-01T11:54:03.504Z,708.00
2023-08-01T11:55:03.480Z,632.00
2023-08-01T11:56:03.483Z,684.00
2023-08-01T11:57:03.462Z,900.00
2023-08-01T11:58:03.433Z,1004.00
2023-08-01T11:59:03.415Z,1088.00
2023-08-01T12:00:03.409Z,1240.00
2023-08-01T12:01:03.462Z,1456.00
2023-08-01T12:02:03.407Z,2680.00
2023-08-01T12:03:03.398Z,1244.00
2023-08-01T12:04:03.390Z,1056.00
2023-08-01T12:05:03.349Z,2888.00
2023-08-01T12:06:03.327Z,2864.00
2023-08-01T12:07:03.324Z,2808.00
2023-08-01T12:08:03.299Z,2440.00
2023-08-01T12:09:03.307Z,2276.00
2023-08-01T12:10:03.271Z,2656.00
2023-08-01T12:11:03.263Z,2484.00
2023-08-01T12:12:03.248Z,2396.00
2023-08-01T12:13:03.233Z,2360.00
2023-08-01T12:14:03.230Z,2372.00
2023-08-01T12:15:03.227Z,2444.00
2023-08-01T12:16:03.221Z,1516.00
2023-08-01T12:17:03.179Z,1392.00
2023-08-01T12:18:03.220Z,772.00
2023-08-01T12:19:03.155Z,740.00
2023-08-01T12:20:03.140Z,748.00
2023-08-01T12:21:03.201Z,728.00
2023-08-01T12:22:03.116Z,648.00
2023-08-01T12:23:03.098Z,576.00
2023-08-01T12:24:03.090Z,548.00
2023-08-01T12:25:03.085Z,572.00
2023-08-01T12:26:03.064Z,628.00
2023-08-01T12:27:03.080Z,672.00
2023-08-01T12:28:03.045Z,720.00
2023-08-01T12:29:03.028Z,752.00
2023-08-01T12:30:03.008Z,760.00
2023-08-01T12:31:03.011Z,736.00
2023-08-01T12:32:02.978Z,704.00
2023-08-01T12:33:03.056Z,684.00
2023-08-01T12:34:02.956Z,700.00
2023-08-01T12:35:02.990Z,732.00
2023-08-01T12:36:02.936Z,748.00
2023-08-01T12:37:02.924Z,752.00
2023-08-01T12:38:03.019Z,748.00
2023-08-01T12:39:02.922Z,748.00
2023-08-01T12:40:02.877Z,812.00
2023-08-01T12:41:02.910Z,964.00
2023-08-01T12:42:02.850Z,1056.00
2023-08-01T12:43:02.839Z,1100.00